Aviation Digital Data Service (ADDS)

Output produced by METARs form (0917 UTC 18 October 2018)
found at http://www.aviationweather.gov/metar/data/
 
HKEL 180800Z VRB02KT 9999 FEW019CB SCT022 BKN260 22/11 Q1024
TAF HKEL 180500Z 1806/1906 12010KT 9999 FEW021CB BKN022 
     TEMPO 1812/1818 VRB10KT -TSRA FEW017CB BKN018 BKN080 
     BECMG 1820/1823 12005KT FEW017 BKN080 
     TEMPO 1900/1906 CAVOK
       
HKJK 180900Z 06007KT 9999 BKN026 26/12 Q1021
TAF HKJK 180500Z 1806/1912 09010KT 9999 BKN028 
     TEMPO 1812/1818 -SHRA FEW023CB SCT024 BKN080 
     BECMG 1820/1823 04005KT BKN018 
     TEMPO 1900/1906 SCT008 BKN016 
     BECMG 1908/1911 09010KT BKN028
       
HKKI 180900Z 24008KT 9999 FEW025CB BKN080 27/18 Q1016
TAF HKKI 172300Z 1800/1824 06005KT 9999 FEW018CB BKN080 
     BECMG 1808/1811 24010KT FEW027CB SCT090 
     TEMPO 1812/1818 VRB10KT -TSRA FEW021CB SCT022CB BKN080 
     BECMG 1820/1823 FEW019CB
       
HKML 180800Z 10008KT 9999 SCT023TCU SCT080 29/23 Q1013
HKMO 180900Z 15003KT 9/9 BKN022TCU 29/24
HKNW 180900Z 12010KT 9999 BKN027 25/11 Q1020
HKWJ 180700Z 11011KT 9999 BKN027 28/20 Q1012